Flight Track Log - Related Links

Times and Time Zones

All times are in EDT time to prevent confusion due to time zone crossing. See the PDT4226 flight status page for this flight to view local times or setup timezone preferences in your user account.

Time Position Orientation Groundspeed Altitude Reporting Facility
EDT Latitude Longitude Course Direction KTS MPH feet Rate Location/Type
Thu 02:16:00 PM 42.0464 -75.9266 180° South  Level Estimated
Thu 02:17:00 PM 41.9908 -75.9279 181° South  Level FlightAware Approximate
Thu 02:18:00 PM 41.9353 -75.9291 181° South  Level FlightAware Approximate
Thu 02:19:00 PM 41.8814 -75.9106 154° Southeast  Level Estimated
Thu 02:20:00 PM 41.8276 -75.8921 160° South  Level Estimated
Thu 02:21:00 PM 41.7723 -75.8848 174° South  Level FlightAware Approximate
Thu 02:22:00 PM 41.7185 -75.8661 159° South  Level Estimated
Thu 02:23:00 PM 41.6642 -75.8496 167° South  Level FlightAware Approximate
Thu 02:24:00 PM 41.6105 -75.8308 153° Southeast  Level Estimated
Thu 02:25:00 PM 41.5567 -75.8121 161° South  Level Estimated
Thu 02:26:00 PM 41.5040 -75.7886 162° South  Level FlightAware Approximate
Thu 02:27:00 PM 41.4512 -75.7652 162° South  Level FlightAware Approximate
Thu 02:28:00 PM 41.3985 -75.7417 162° South  Level FlightAware Approximate
Thu 02:29:00 PM 41.3446 -75.7236 162° South  Level Estimated
Thu 02:30:00 PM 41.2920 -75.6996 161° South  Level FlightAware Approximate
Thu 02:31:00 PM 41.2395 -75.6756 161° South  Level FlightAware Approximate
Thu 02:32:00 PM 41.1869 -75.6516 161° South  Level FlightAware Approximate
Thu 02:33:00 PM 41.1343 -75.6276 161° South  Level FlightAware Approximate
Thu 02:34:00 PM 41.0802 -75.6107 163° South  Level Estimated
Thu 02:35:00 PM 41.0275 -75.5873 161° South  Level FlightAware Approximate
Thu 02:36:00 PM 40.9748 -75.5639 161° South  Level FlightAware Approximate
Thu 02:37:00 PM 40.9221 -75.5406 161° South  Level FlightAware Approximate
Thu 02:38:00 PM 40.8694 -75.5173 162° South  Level FlightAware Approximate
Thu 02:39:00 PM 40.8150 -75.5020 190° South  Level Estimated
Thu 02:40:00 PM 40.7594 -75.5016 180° South  Level FlightAware Approximate
Thu 02:41:00 PM 40.7039 -75.5013 180° South  Level FlightAware Approximate
Thu 02:42:00 PM 40.6483 -75.5009 180° South  Level FlightAware Approximate
Thu 02:42:32 PM 40.5500 -75.6333 180° South 246 283 5,200  Level Philadelphia TRACON
Thu 02:42:38 PM 40.5500 -75.6333 180° South 246 283 5,100 -182 Descending Philadelphia TRACON
Thu 02:43:00 PM 40.5945 -75.4827 187° South  Level Estimated
Thu 02:43:38 PM 40.4833 -75.6167 169° South 239 275 5,000  Level Philadelphia TRACON
Thu 02:44:00 PM 40.5394 -75.4923 188° South  Level FlightAware Approximate
Thu 02:44:44 PM 40.4167 -75.5833 159° South 230 265 5,000  Level Philadelphia TRACON
Thu 02:45:00 PM 40.4860 -75.4720 190° South  Level Estimated
Thu 02:45:44 PM 40.3667 -75.5167 135° Southeast 229 264 4,500  Level Philadelphia TRACON
Thu 02:46:00 PM 40.4238 -75.4926 194° South  Level FlightAware Approximate
Thu 02:46:44 PM 40.3167 -75.4667 143° Southeast 219 252 3,500  Level Philadelphia TRACON
Thu 02:47:00 PM 40.3633 -75.4648 180° South  Level Estimated
Thu 02:47:44 PM 40.2667 -75.4333 153° Southeast 211 243 3,000  Level Philadelphia TRACON
Thu 02:48:44 PM 40.2167 -75.4000 153° Southeast 205 236 3,000  Level Philadelphia TRACON
Thu 02:49:44 PM 40.1667 -75.3833 166° South 201 231 3,000  Level Philadelphia TRACON
Thu 02:50:44 PM 40.1167 -75.3500 153° Southeast 200 230 3,000  Level Philadelphia TRACON
Thu 02:51:45 PM 40.0667 -75.3333 166° South 206 237 3,000 -248 Level Philadelphia TRACON
Thu 02:52:45 PM 40.0167 -75.3000 153° Southeast 196 226 2,500 -700 Descending Philadelphia TRACON
Thu 02:53:45 PM 39.9667 -75.2833 166° South 161 185 1,600 -800 Descending Philadelphia TRACON
Thu 02:54:45 PM 39.9333 -75.2500 143° Southeast 140 161 900 -700 Descending Philadelphia TRACON
Thu 02:55:45 PM 39.9000 -75.2500 180° South 109 125 200 -700 Descending Philadelphia TRACON

Login

Don't have an account? Register now (free) for customized features, flight alerts, and more!